Mr Thomas — WDD7163 — position and weather

sailwx.info

Track history (hours):
 
Tides and Currents Weather Stations Pressure Air Temp Water Temp Dewpoint Dewpoint Depression Visibility Wind Speed Wind Dir Waves Ship Positions

Mr Thomas

Owner: CENTRAL BOAT RENTALS, BERWICK, LA. More information available from US FCC via Universal Licensing System and Coast Guard Vessel Documentation Center.

Last reported at 2015-Jul-17 02:25 UTC. Time now 2015-Aug-04 03:22 UTC.
Position N 29°30' W 094°53'.
Warning: this ship's position is 18 days out of date.

Length 21 m.

Type: Tug. MMSI: 367182730.

Date/timePositionNaut miles runAvg speedWind from/ knotsBaromVisibWave heightAir tempDewpointWater temp
2015-Jul-17 02:25N 29°30' W 094°53'5 6.1
2015-Jul-17 01:33N 29°35' W 094°56'6 6.1
2015-Jul-17 00:33N 29°40' W 094°59'6 5.5
2015-Jul-16 23:32N 29°44' W 095°03'2 0.1
2015-Jul-15 12:23N 29°45' W 095°06'5 5.6
2015-Jul-15 11:33N 29°43' W 095°01'7 7.0
2015-Jul-15 10:33N 29°37' W 094°57'6 5.8
2015-Jul-15 09:33N 29°32' W 094°54'6 5.2
2015-Jul-15 08:28N 29°27' W 094°50'206 4.2
2015-Jul-13 07:27N 29°33' W 090°54'5 5.6
2015-Jul-13 06:33N 29°32' W 090°48'4 4.3
2015-Jul-13 05:33N 29°34' W 090°43'4 4.1
2015-Jul-13 04:33N 29°30' W 090°43'6 5.7
2015-Jul-13 03:33N 29°24' W 090°44'4 0.1
2015-Jul-11 12:17N 29°20' W 090°44'5 6.9
2015-Jul-11 11:33N 29°25' W 090°43'7 7.3
2015-Jul-11 10:33N 29°32' W 090°42'3 3.1
2015-Jul-11 09:33N 29°32' W 090°46'7 7.4
2015-Jul-11 08:33N 29°33' W 090°54'  
Track history (hours):
 
Tides and Currents Weather Stations Pressure Air Temp Water Temp Dewpoint Dewpoint Depression Visibility Wind Speed Wind Dir Waves Ship Positions

Mr Thomas

Owner: CENTRAL BOAT RENTALS, BERWICK, LA. More information available from US FCC via Universal Licensing System and Coast Guard Vessel Documentation Center.

Last reported at 2015-Jul-17 02:25 UTC. Time now 2015-Aug-04 03:22 UTC.
Position N 29°30' W 094°53'.
Warning: this ship's position is 18 days out of date.

Length 21 m.

Type: Tug. MMSI: 367182730.

Date/timePositionNaut miles runAvg speedWind from/ knotsBaromVisibWave heightAir tempDewpointWater temp
2015-Jul-17 02:25N 29°30' W 094°53'5 6.1
2015-Jul-17 01:33N 29°35' W 094°56'6 6.1
2015-Jul-17 00:33N 29°40' W 094°59'6 5.5
2015-Jul-16 23:32N 29°44' W 095°03'2 0.1
2015-Jul-15 12:23N 29°45' W 095°06'5 5.6
2015-Jul-15 11:33N 29°43' W 095°01'7 7.0
2015-Jul-15 10:33N 29°37' W 094°57'6 5.8
2015-Jul-15 09:33N 29°32' W 094°54'6 5.2
2015-Jul-15 08:28N 29°27' W 094°50'206 4.2
2015-Jul-13 07:27N 29°33' W 090°54'5 5.6
2015-Jul-13 06:33N 29°32' W 090°48'4 4.3
2015-Jul-13 05:33N 29°34' W 090°43'4 4.1
2015-Jul-13 04:33N 29°30' W 090°43'6 5.7
2015-Jul-13 03:33N 29°24' W 090°44'4 0.1
2015-Jul-11 12:17N 29°20' W 090°44'5 6.9
2015-Jul-11 11:33N 29°25' W 090°43'7 7.3
2015-Jul-11 10:33N 29°32' W 090°42'3 3.1
2015-Jul-11 09:33N 29°32' W 090°46'7 7.4
2015-Jul-11 08:33N 29°33' W 090°54'  

Dump ship's entire track history